sensor_id;sensor_type;location;lat;lon;timestamp;temperature;humidity
1297;DHT22;641;48.492;9.184;2023-06-22T00:02:13;20.80;83.80
1297;DHT22;641;48.492;9.184;2023-06-22T00:04:39;20.70;83.90
1297;DHT22;641;48.492;9.184;2023-06-22T00:07:05;20.70;83.90
1297;DHT22;641;48.492;9.184;2023-06-22T00:09:31;20.70;84.40
1297;DHT22;641;48.492;9.184;2023-06-22T00:11:57;20.70;84.10
1297;DHT22;641;48.492;9.184;2023-06-22T00:14:22;20.70;84.50
1297;DHT22;641;48.492;9.184;2023-06-22T00:16:48;20.60;84.70
1297;DHT22;641;48.492;9.184;2023-06-22T00:19:15;20.60;84.60
1297;DHT22;641;48.492;9.184;2023-06-22T00:21:41;20.50;84.70
1297;DHT22;641;48.492;9.184;2023-06-22T00:24:08;20.50;84.60
1297;DHT22;641;48.492;9.184;2023-06-22T00:26:33;20.50;85.20
1297;DHT22;641;48.492;9.184;2023-06-22T00:28:59;20.50;85.10
1297;DHT22;641;48.492;9.184;2023-06-22T00:31:25;20.40;85.60
1297;DHT22;641;48.492;9.184;2023-06-22T00:33:50;20.40;86.20
1297;DHT22;641;48.492;9.184;2023-06-22T00:36:16;20.40;86.10
1297;DHT22;641;48.492;9.184;2023-06-22T00:38:43;20.30;85.90
1297;DHT22;641;48.492;9.184;2023-06-22T00:41:09;20.30;86.30
1297;DHT22;641;48.492;9.184;2023-06-22T00:43:34;20.20;86.60
1297;DHT22;641;48.492;9.184;2023-06-22T00:46:00;20.20;87.10
1297;DHT22;641;48.492;9.184;2023-06-22T00:48:26;20.10;87.10
1297;DHT22;641;48.492;9.184;2023-06-22T00:50:52;20.00;87.10
1297;DHT22;641;48.492;9.184;2023-06-22T00:53:19;20.00;87.20
1297;DHT22;641;48.492;9.184;2023-06-22T00:55:45;20.00;87.80
1297;DHT22;641;48.492;9.184;2023-06-22T00:58:17;20.00;88.70
1297;DHT22;641;48.492;9.184;2023-06-22T01:00:43;20.00;87.80
1297;DHT22;641;48.492;9.184;2023-06-22T01:03:09;19.90;88.10
1297;DHT22;641;48.492;9.184;2023-06-22T01:05:35;19.80;88.40
1297;DHT22;641;48.492;9.184;2023-06-22T01:08:31;19.80;89.20
1297;DHT22;641;48.492;9.184;2023-06-22T01:11:09;19.80;89.00
1297;DHT22;641;48.492;9.184;2023-06-22T01:16:26;19.70;89.50
1297;DHT22;641;48.492;9.184;2023-06-22T01:18:55;19.60;90.00
1297;DHT22;641;48.492;9.184;2023-06-22T01:21:24;19.50;89.90
1297;DHT22;641;48.492;9.184;2023-06-22T01:27:00;19.40;90.40
1297;DHT22;641;48.492;9.184;2023-06-22T01:29:24;19.30;90.60
1297;DHT22;641;48.492;9.184;2023-06-22T01:31:53;19.30;90.50
1297;DHT22;641;48.492;9.184;2023-06-22T01:34:20;19.30;90.70
1297;DHT22;641;48.492;9.184;2023-06-22T01:36:46;19.40;90.70
1297;DHT22;641;48.492;9.184;2023-06-22T01:39:13;19.30;90.70
1297;DHT22;641;48.492;9.184;2023-06-22T01:41:39;19.30;90.70
1297;DHT22;641;48.492;9.184;2023-06-22T01:44:08;19.30;90.80
1297;DHT22;641;48.492;9.184;2023-06-22T01:46:37;19.30;91.10
1297;DHT22;641;48.492;9.184;2023-06-22T01:49:04;19.20;90.80
1297;DHT22;641;48.492;9.184;2023-06-22T01:51:31;19.20;90.90
1297;DHT22;641;48.492;9.184;2023-06-22T01:53:56;19.20;91.10
1297;DHT22;641;48.492;9.184;2023-06-22T01:56:22;19.20;91.20
1297;DHT22;641;48.492;9.184;2023-06-22T01:58:57;19.10;91.10
1297;DHT22;641;48.492;9.184;2023-06-22T02:01:28;19.10;91.00
1297;DHT22;641;48.492;9.184;2023-06-22T02:04:05;19.10;91.10
1297;DHT22;641;48.492;9.184;2023-06-22T02:06:38;19.10;91.10
1297;DHT22;641;48.492;9.184;2023-06-22T02:09:15;19.10;91.40
1297;DHT22;641;48.492;9.184;2023-06-22T02:11:44;19.10;91.50
1297;DHT22;641;48.492;9.184;2023-06-22T02:14:12;19.10;91.40
1297;DHT22;641;48.492;9.184;2023-06-22T02:16:38;19.10;91.30
1297;DHT22;641;48.492;9.184;2023-06-22T02:19:04;18.90;91.60
1297;DHT22;641;48.492;9.184;2023-06-22T02:21:31;18.60;92.00
1297;DHT22;641;48.492;9.184;2023-06-22T02:23:58;18.70;92.20
1297;DHT22;641;48.492;9.184;2023-06-22T02:26:25;18.70;92.20
1297;DHT22;641;48.492;9.184;2023-06-22T02:28:51;18.70;92.30
1297;DHT22;641;48.492;9.184;2023-06-22T02:31:17;18.70;92.00
1297;DHT22;641;48.492;9.184;2023-06-22T02:33:42;18.70;92.10
1297;DHT22;641;48.492;9.184;2023-06-22T02:36:09;18.70;92.30
1297;DHT22;641;48.492;9.184;2023-06-22T02:38:35;18.70;92.30
1297;DHT22;641;48.492;9.184;2023-06-22T02:41:02;18.60;92.30
1297;DHT22;641;48.492;9.184;2023-06-22T02:43:27;18.60;92.50
1297;DHT22;641;48.492;9.184;2023-06-22T02:45:53;18.70;92.50
1297;DHT22;641;48.492;9.184;2023-06-22T02:48:19;18.70;92.60
1297;DHT22;641;48.492;9.184;2023-06-22T02:50:45;18.60;92.20
1297;DHT22;641;48.492;9.184;2023-06-22T02:53:10;18.60;92.20
1297;DHT22;641;48.492;9.184;2023-06-22T02:55:36;18.50;92.10
1297;DHT22;641;48.492;9.184;2023-06-22T02:58:01;18.50;92.10
1297;DHT22;641;48.492;9.184;2023-06-22T03:00:31;18.50;92.10
1297;DHT22;641;48.492;9.184;2023-06-22T03:02:57;18.50;92.30
1297;DHT22;641;48.492;9.184;2023-06-22T03:05:23;18.40;92.40
1297;DHT22;641;48.492;9.184;2023-06-22T03:07:49;18.50;92.40
1297;DHT22;641;48.492;9.184;2023-06-22T03:10:15;18.50;92.30
1297;DHT22;641;48.492;9.184;2023-06-22T03:12:42;18.50;92.40
1297;DHT22;641;48.492;9.184;2023-06-22T03:15:10;18.40;92.40
1297;DHT22;641;48.492;9.184;2023-06-22T03:17:37;18.50;92.50
1297;DHT22;641;48.492;9.184;2023-06-22T03:20:04;18.50;92.40
1297;DHT22;641;48.492;9.184;2023-06-22T03:22:38;18.50;92.40
1297;DHT22;641;48.492;9.184;2023-06-22T03:25:04;18.50;92.40
1297;DHT22;641;48.492;9.184;2023-06-22T03:27:30;18.50;92.30
1297;DHT22;641;48.492;9.184;2023-06-22T03:29:57;18.50;92.30
1297;DHT22;641;48.492;9.184;2023-06-22T03:32:23;18.40;92.20
1297;DHT22;641;48.492;9.184;2023-06-22T03:34:48;18.40;92.30
1297;DHT22;641;48.492;9.184;2023-06-22T03:37:14;18.40;92.30
1297;DHT22;641;48.492;9.184;2023-06-22T03:39:41;18.40;92.20
1297;DHT22;641;48.492;9.184;2023-06-22T03:42:07;18.30;92.40
1297;DHT22;641;48.492;9.184;2023-06-22T03:44:33;18.30;92.70
1297;DHT22;641;48.492;9.184;2023-06-22T03:46:58;18.30;92.90
1297;DHT22;641;48.492;9.184;2023-06-22T03:49:24;18.30;92.60
1297;DHT22;641;48.492;9.184;2023-06-22T03:51:49;18.30;92.80
1297;DHT22;641;48.492;9.184;2023-06-22T03:54:15;18.30;92.50
1297;DHT22;641;48.492;9.184;2023-06-22T03:56:40;18.30;92.50
1297;DHT22;641;48.492;9.184;2023-06-22T03:59:07;18.40;92.70
1297;DHT22;641;48.492;9.184;2023-06-22T04:01:32;18.40;92.60
1297;DHT22;641;48.492;9.184;2023-06-22T04:03:58;18.40;92.50
1297;DHT22;641;48.492;9.184;2023-06-22T04:06:23;18.40;92.50
1297;DHT22;641;48.492;9.184;2023-06-22T04:08:49;18.50;92.60
1297;DHT22;641;48.492;9.184;2023-06-22T04:11:17;18.50;92.20
1297;DHT22;641;48.492;9.184;2023-06-22T04:13:43;18.40;92.50
1297;DHT22;641;48.492;9.184;2023-06-22T04:16:09;18.50;92.50
1297;DHT22;641;48.492;9.184;2023-06-22T04:18:35;18.50;92.30
1297;DHT22;641;48.492;9.184;2023-06-22T04:21:01;18.60;92.50
1297;DHT22;641;48.492;9.184;2023-06-22T04:23:28;18.70;92.30
1297;DHT22;641;48.492;9.184;2023-06-22T04:25:53;18.70;92.20
1297;DHT22;641;48.492;9.184;2023-06-22T04:28:21;18.80;92.10
1297;DHT22;641;48.492;9.184;2023-06-22T04:30:47;18.80;91.90
1297;DHT22;641;48.492;9.184;2023-06-22T04:33:16;18.80;91.40
1297;DHT22;641;48.492;9.184;2023-06-22T04:35:45;18.80;91.70
1297;DHT22;641;48.492;9.184;2023-06-22T04:38:12;18.80;91.60
1297;DHT22;641;48.492;9.184;2023-06-22T04:40:39;18.90;91.70
1297;DHT22;641;48.492;9.184;2023-06-22T04:43:04;18.90;91.80
1297;DHT22;641;48.492;9.184;2023-06-22T04:45:32;19.00;91.70
1297;DHT22;641;48.492;9.184;2023-06-22T04:47:58;19.10;91.70
1297;DHT22;641;48.492;9.184;2023-06-22T04:50:23;19.10;91.30
1297;DHT22;641;48.492;9.184;2023-06-22T04:52:50;19.20;91.50
1297;DHT22;641;48.492;9.184;2023-06-22T04:55:16;19.30;91.50
1297;DHT22;641;48.492;9.184;2023-06-22T04:57:44;19.30;90.90
1297;DHT22;641;48.492;9.184;2023-06-22T05:00:15;19.40;91.20
1297;DHT22;641;48.492;9.184;2023-06-22T05:02:43;19.50;90.80
1297;DHT22;641;48.492;9.184;2023-06-22T05:05:09;19.60;90.50
1297;DHT22;641;48.492;9.184;2023-06-22T05:07:50;19.50;90.70
1297;DHT22;641;48.492;9.184;2023-06-22T05:10:18;19.40;90.70
1297;DHT22;641;48.492;9.184;2023-06-22T05:12:44;19.40;91.10
1297;DHT22;641;48.492;9.184;2023-06-22T05:15:10;19.50;91.00
1297;DHT22;641;48.492;9.184;2023-06-22T05:17:36;19.50;91.10
1297;DHT22;641;48.492;9.184;2023-06-22T05:20:06;19.60;91.10
1297;DHT22;641;48.492;9.184;2023-06-22T05:22:32;19.70;91.20
1297;DHT22;641;48.492;9.184;2023-06-22T05:24:58;19.70;90.60
1297;DHT22;641;48.492;9.184;2023-06-22T05:27:23;19.70;90.70
1297;DHT22;641;48.492;9.184;2023-06-22T05:29:49;19.70;90.70
1297;DHT22;641;48.492;9.184;2023-06-22T05:32:15;19.80;90.40
1297;DHT22;641;48.492;9.184;2023-06-22T05:34:40;20.10;90.10
1297;DHT22;641;48.492;9.184;2023-06-22T05:37:06;20.20;90.20
1297;DHT22;641;48.492;9.184;2023-06-22T05:39:31;20.30;89.40
1297;DHT22;641;48.492;9.184;2023-06-22T05:41:57;20.60;88.20
1297;DHT22;641;48.492;9.184;2023-06-22T05:44:23;20.80;86.80
1297;DHT22;641;48.492;9.184;2023-06-22T05:46:48;20.60;85.90
1297;DHT22;641;48.492;9.184;2023-06-22T05:49:14;20.60;87.40
1297;DHT22;641;48.492;9.184;2023-06-22T05:51:41;20.40;86.70
1297;DHT22;641;48.492;9.184;2023-06-22T05:54:07;20.50;88.00
1297;DHT22;641;48.492;9.184;2023-06-22T05:56:34;20.40;88.10
1297;DHT22;641;48.492;9.184;2023-06-22T05:58:59;20.50;88.00
1297;DHT22;641;48.492;9.184;2023-06-22T06:01:25;20.70;87.20
1297;DHT22;641;48.492;9.184;2023-06-22T06:03:51;20.80;86.40
1297;DHT22;641;48.492;9.184;2023-06-22T06:06:18;20.70;85.80
1297;DHT22;641;48.492;9.184;2023-06-22T06:08:46;20.90;86.30
1297;DHT22;641;48.492;9.184;2023-06-22T06:11:12;21.10;84.90
1297;DHT22;641;48.492;9.184;2023-06-22T06:13:37;21.20;83.20
1297;DHT22;641;48.492;9.184;2023-06-22T06:16:03;21.20;82.80
1297;DHT22;641;48.492;9.184;2023-06-22T06:18:29;21.30;83.50
1297;DHT22;641;48.492;9.184;2023-06-22T06:20:54;21.30;82.30
1297;DHT22;641;48.492;9.184;2023-06-22T06:23:20;21.50;82.00
1297;DHT22;641;48.492;9.184;2023-06-22T06:25:45;21.30;81.40
1297;DHT22;641;48.492;9.184;2023-06-22T06:28:11;21.50;82.00
1297;DHT22;641;48.492;9.184;2023-06-22T06:30:37;21.60;81.80
1297;DHT22;641;48.492;9.184;2023-06-22T06:33:02;21.80;81.80
1297;DHT22;641;48.492;9.184;2023-06-22T06:35:30;22.00;81.40
1297;DHT22;641;48.492;9.184;2023-06-22T06:37:55;22.00;79.00
1297;DHT22;641;48.492;9.184;2023-06-22T06:40:21;21.90;79.20
1297;DHT22;641;48.492;9.184;2023-06-22T06:42:48;21.90;79.00
1297;DHT22;641;48.492;9.184;2023-06-22T06:45:19;21.80;79.70
1297;DHT22;641;48.492;9.184;2023-06-22T06:47:45;21.90;78.50
1297;DHT22;641;48.492;9.184;2023-06-22T06:50:11;22.00;79.50
1297;DHT22;641;48.492;9.184;2023-06-22T06:52:37;22.20;77.60
1297;DHT22;641;48.492;9.184;2023-06-22T06:55:03;22.10;77.80
1297;DHT22;641;48.492;9.184;2023-06-22T06:57:32;22.20;76.90
1297;DHT22;641;48.492;9.184;2023-06-22T06:59:59;22.20;76.80
1297;DHT22;641;48.492;9.184;2023-06-22T07:02:25;22.40;77.30
1297;DHT22;641;48.492;9.184;2023-06-22T07:04:53;22.40;76.90
1297;DHT22;641;48.492;9.184;2023-06-22T07:07:20;22.50;75.80
1297;DHT22;641;48.492;9.184;2023-06-22T07:13:08;22.60;75.20
1297;DHT22;641;48.492;9.184;2023-06-22T07:15:33;22.90;76.00
1297;DHT22;641;48.492;9.184;2023-06-22T07:17:59;23.10;75.60
1297;DHT22;641;48.492;9.184;2023-06-22T07:20:25;23.20;74.30
1297;DHT22;641;48.492;9.184;2023-06-22T07:22:51;23.40;75.20
1297;DHT22;641;48.492;9.184;2023-06-22T07:25:17;23.70;72.60
1297;DHT22;641;48.492;9.184;2023-06-22T07:27:45;23.80;72.40
1297;DHT22;641;48.492;9.184;2023-06-22T07:30:12;23.90;70.90
1297;DHT22;641;48.492;9.184;2023-06-22T07:32:37;23.80;70.30
1297;DHT22;641;48.492;9.184;2023-06-22T07:35:03;24.00;72.00
1297;DHT22;641;48.492;9.184;2023-06-22T07:37:30;24.10;71.30
1297;DHT22;641;48.492;9.184;2023-06-22T07:39:56;24.30;71.10
1297;DHT22;641;48.492;9.184;2023-06-22T07:42:25;24.50;70.40
1297;DHT22;641;48.492;9.184;2023-06-22T07:44:50;24.60;69.70
1297;DHT22;641;48.492;9.184;2023-06-22T07:47:16;24.70;69.10
1297;DHT22;641;48.492;9.184;2023-06-22T07:49:44;24.70;67.90
1297;DHT22;641;48.492;9.184;2023-06-22T07:52:10;24.70;68.20
1297;DHT22;641;48.492;9.184;2023-06-22T07:54:36;24.60;68.30
1297;DHT22;641;48.492;9.184;2023-06-22T07:57:02;24.50;68.80
1297;DHT22;641;48.492;9.184;2023-06-22T07:59:27;24.60;69.40
1297;DHT22;641;48.492;9.184;2023-06-22T08:01:53;24.80;69.70
1297;DHT22;641;48.492;9.184;2023-06-22T08:04:19;25.00;70.20
1297;DHT22;641;48.492;9.184;2023-06-22T08:06:44;25.10;68.10
1297;DHT22;641;48.492;9.184;2023-06-22T08:09:10;25.10;67.80
1297;DHT22;641;48.492;9.184;2023-06-22T08:11:35;25.00;66.20
1297;DHT22;641;48.492;9.184;2023-06-22T08:14:01;25.00;66.10
1297;DHT22;641;48.492;9.184;2023-06-22T08:16:26;25.00;68.40
1297;DHT22;641;48.492;9.184;2023-06-22T08:18:52;25.10;68.40
1297;DHT22;641;48.492;9.184;2023-06-22T08:21:17;25.30;68.60
1297;DHT22;641;48.492;9.184;2023-06-22T08:23:43;25.50;66.80
1297;DHT22;641;48.492;9.184;2023-06-22T08:26:08;25.50;66.70
1297;DHT22;641;48.492;9.184;2023-06-22T08:28:34;25.60;65.90
1297;DHT22;641;48.492;9.184;2023-06-22T08:31:00;25.70;65.70
1297;DHT22;641;48.492;9.184;2023-06-22T08:33:26;25.70;63.70
1297;DHT22;641;48.492;9.184;2023-06-22T08:35:57;25.80;64.10
1297;DHT22;641;48.492;9.184;2023-06-22T08:38:23;25.90;64.70
1297;DHT22;641;48.492;9.184;2023-06-22T08:40:48;26.00;65.00
1297;DHT22;641;48.492;9.184;2023-06-22T08:43:14;26.20;65.10
1297;DHT22;641;48.492;9.184;2023-06-22T08:45:40;26.30;63.80
1297;DHT22;641;48.492;9.184;2023-06-22T08:48:06;26.20;64.00
1297;DHT22;641;48.492;9.184;2023-06-22T08:50:32;26.30;64.80
1297;DHT22;641;48.492;9.184;2023-06-22T08:52:57;26.40;62.70
1297;DHT22;641;48.492;9.184;2023-06-22T08:55:23;26.30;62.90
1297;DHT22;641;48.492;9.184;2023-06-22T08:57:48;26.30;63.10
1297;DHT22;641;48.492;9.184;2023-06-22T09:00:14;26.40;64.10
1297;DHT22;641;48.492;9.184;2023-06-22T09:02:45;26.30;62.70
1297;DHT22;641;48.492;9.184;2023-06-22T09:05:11;26.60;63.40
1297;DHT22;641;48.492;9.184;2023-06-22T09:07:37;26.30;62.80
1297;DHT22;641;48.492;9.184;2023-06-22T09:10:03;26.30;64.40
1297;DHT22;641;48.492;9.184;2023-06-22T09:12:30;26.30;63.70
1297;DHT22;641;48.492;9.184;2023-06-22T09:14:56;26.30;63.50
1297;DHT22;641;48.492;9.184;2023-06-22T09:17:22;26.30;62.80
1297;DHT22;641;48.492;9.184;2023-06-22T09:19:48;26.40;63.50
1297;DHT22;641;48.492;9.184;2023-06-22T09:22:14;26.40;64.30
1297;DHT22;641;48.492;9.184;2023-06-22T09:24:39;26.70;64.00
1297;DHT22;641;48.492;9.184;2023-06-22T09:27:05;26.80;63.00
1297;DHT22;641;48.492;9.184;2023-06-22T09:29:31;27.00;61.40
1297;DHT22;641;48.492;9.184;2023-06-22T09:31:59;27.00;61.90
1297;DHT22;641;48.492;9.184;2023-06-22T09:34:25;27.10;61.90
1297;DHT22;641;48.492;9.184;2023-06-22T09:36:50;27.30;62.50
1297;DHT22;641;48.492;9.184;2023-06-22T09:39:18;27.40;60.50
1297;DHT22;641;48.492;9.184;2023-06-22T09:41:43;27.00;61.40
1297;DHT22;641;48.492;9.184;2023-06-22T09:44:09;27.10;61.80
1297;DHT22;641;48.492;9.184;2023-06-22T09:46:34;27.00;60.80
1297;DHT22;641;48.492;9.184;2023-06-22T09:49:00;27.10;61.80
1297;DHT22;641;48.492;9.184;2023-06-22T09:51:26;26.90;62.20
1297;DHT22;641;48.492;9.184;2023-06-22T09:53:52;27.10;61.00
1297;DHT22;641;48.492;9.184;2023-06-22T09:56:19;27.40;61.50
1297;DHT22;641;48.492;9.184;2023-06-22T09:58:46;27.50;60.70
1297;DHT22;641;48.492;9.184;2023-06-22T10:01:12;27.50;59.70
1297;DHT22;641;48.492;9.184;2023-06-22T10:03:38;27.30;61.00
1297;DHT22;641;48.492;9.184;2023-06-22T10:06:03;27.80;60.10
1297;DHT22;641;48.492;9.184;2023-06-22T10:08:29;28.10;59.80
1297;DHT22;641;48.492;9.184;2023-06-22T10:10:55;28.30;58.20
1297;DHT22;641;48.492;9.184;2023-06-22T10:13:20;28.40;57.50
1297;DHT22;641;48.492;9.184;2023-06-22T10:15:46;28.50;57.70
1297;DHT22;641;48.492;9.184;2023-06-22T10:18:15;28.50;57.80
1297;DHT22;641;48.492;9.184;2023-06-22T10:20:42;28.50;56.90
1297;DHT22;641;48.492;9.184;2023-06-22T10:23:07;28.60;58.20
1297;DHT22;641;48.492;9.184;2023-06-22T10:25:33;28.70;57.70
1297;DHT22;641;48.492;9.184;2023-06-22T10:27:58;28.60;56.20
1297;DHT22;641;48.492;9.184;2023-06-22T10:30:24;28.80;55.50
1297;DHT22;641;48.492;9.184;2023-06-22T10:32:49;29.10;55.30
1297;DHT22;641;48.492;9.184;2023-06-22T10:35:15;28.80;55.40
1297;DHT22;641;48.492;9.184;2023-06-22T10:37:45;29.00;54.50
1297;DHT22;641;48.492;9.184;2023-06-22T10:40:15;29.00;56.30
1297;DHT22;641;48.492;9.184;2023-06-22T10:42:41;29.30;55.50
1297;DHT22;641;48.492;9.184;2023-06-22T10:45:07;29.70;55.70
1297;DHT22;641;48.492;9.184;2023-06-22T10:47:34;29.80;54.00
1297;DHT22;641;48.492;9.184;2023-06-22T10:49:59;30.20;53.30
1297;DHT22;641;48.492;9.184;2023-06-22T10:52:25;30.40;53.20
1297;DHT22;641;48.492;9.184;2023-06-22T10:54:50;30.40;53.10
1297;DHT22;641;48.492;9.184;2023-06-22T10:57:16;30.60;52.70
1297;DHT22;641;48.492;9.184;2023-06-22T10:59:41;30.70;51.60
1297;DHT22;641;48.492;9.184;2023-06-22T11:02:07;30.50;50.40
1297;DHT22;641;48.492;9.184;2023-06-22T11:04:32;30.00;51.20
1297;DHT22;641;48.492;9.184;2023-06-22T11:06:58;30.10;51.50
1297;DHT22;641;48.492;9.184;2023-06-22T11:09:23;30.10;52.30
1297;DHT22;641;48.492;9.184;2023-06-22T11:11:51;30.40;53.40
1297;DHT22;641;48.492;9.184;2023-06-22T11:14:19;30.50;52.90
1297;DHT22;641;48.492;9.184;2023-06-22T11:16:44;30.30;51.90
1297;DHT22;641;48.492;9.184;2023-06-22T11:19:11;30.20;51.90
1297;DHT22;641;48.492;9.184;2023-06-22T11:21:37;30.40;53.20
1297;DHT22;641;48.492;9.184;2023-06-22T11:24:02;30.60;51.00
1297;DHT22;641;48.492;9.184;2023-06-22T11:26:28;31.00;50.50
1297;DHT22;641;48.492;9.184;2023-06-22T11:28:54;30.90;51.60
1297;DHT22;641;48.492;9.184;2023-06-22T11:31:19;31.20;49.60
1297;DHT22;641;48.492;9.184;2023-06-22T11:33:45;31.30;50.50
1297;DHT22;641;48.492;9.184;2023-06-22T11:36:12;31.40;50.80
1297;DHT22;641;48.492;9.184;2023-06-22T11:38:38;31.10;50.20
1297;DHT22;641;48.492;9.184;2023-06-22T11:41:05;30.90;49.50
1297;DHT22;641;48.492;9.184;2023-06-22T11:43:31;30.70;50.70
1297;DHT22;641;48.492;9.184;2023-06-22T11:45:57;30.80;51.20
1297;DHT22;641;48.492;9.184;2023-06-22T11:48:24;30.70;52.60
1297;DHT22;641;48.492;9.184;2023-06-22T11:50:50;30.80;52.60
1297;DHT22;641;48.492;9.184;2023-06-22T11:53:16;31.00;52.30
1297;DHT22;641;48.492;9.184;2023-06-22T11:55:43;31.20;52.20
1297;DHT22;641;48.492;9.184;2023-06-22T11:58:09;31.10;51.60
1297;DHT22;641;48.492;9.184;2023-06-22T12:00:34;30.70;53.00
1297;DHT22;641;48.492;9.184;2023-06-22T12:03:00;30.80;53.60
1297;DHT22;641;48.492;9.184;2023-06-22T12:05:25;31.00;53.60
1297;DHT22;641;48.492;9.184;2023-06-22T12:07:53;31.00;52.60
1297;DHT22;641;48.492;9.184;2023-06-22T12:10:18;30.90;52.80
1297;DHT22;641;48.492;9.184;2023-06-22T12:12:44;30.70;53.30
1297;DHT22;641;48.492;9.184;2023-06-22T12:15:10;30.90;53.70
1297;DHT22;641;48.492;9.184;2023-06-22T12:17:36;30.90;53.00
1297;DHT22;641;48.492;9.184;2023-06-22T12:20:02;30.30;53.80
1297;DHT22;641;48.492;9.184;2023-06-22T12:22:31;29.90;54.20
1297;DHT22;641;48.492;9.184;2023-06-22T12:24:57;29.70;55.50
1297;DHT22;641;48.492;9.184;2023-06-22T12:27:22;29.60;56.10
1297;DHT22;641;48.492;9.184;2023-06-22T12:29:48;29.50;56.70
1297;DHT22;641;48.492;9.184;2023-06-22T12:32:14;29.30;56.20
1297;DHT22;641;48.492;9.184;2023-06-22T12:34:41;29.20;56.20
1297;DHT22;641;48.492;9.184;2023-06-22T12:37:07;29.20;56.50
1297;DHT22;641;48.492;9.184;2023-06-22T12:39:32;29.30;56.80
1297;DHT22;641;48.492;9.184;2023-06-22T12:41:58;29.20;56.80
1297;DHT22;641;48.492;9.184;2023-06-22T12:44:24;29.20;57.20
1297;DHT22;641;48.492;9.184;2023-06-22T12:46:49;29.30;56.80
1297;DHT22;641;48.492;9.184;2023-06-22T12:49:15;29.30;55.80
1297;DHT22;641;48.492;9.184;2023-06-22T12:51:42;29.30;55.70
1297;DHT22;641;48.492;9.184;2023-06-22T12:54:08;29.30;55.60
1297;DHT22;641;48.492;9.184;2023-06-22T12:56:34;29.30;56.20
1297;DHT22;641;48.492;9.184;2023-06-22T12:59:00;29.40;57.10
1297;DHT22;641;48.492;9.184;2023-06-22T13:01:27;29.30;56.60
1297;DHT22;641;48.492;9.184;2023-06-22T13:03:53;29.40;55.40
1297;DHT22;641;48.492;9.184;2023-06-22T13:06:19;29.50;55.80
1297;DHT22;641;48.492;9.184;2023-06-22T13:08:44;29.80;56.20
1297;DHT22;641;48.492;9.184;2023-06-22T13:11:10;30.00;54.60
1297;DHT22;641;48.492;9.184;2023-06-22T13:13:36;30.20;54.50
1297;DHT22;641;48.492;9.184;2023-06-22T13:16:01;30.10;54.60
1297;DHT22;641;48.492;9.184;2023-06-22T13:18:27;30.20;54.40
1297;DHT22;641;48.492;9.184;2023-06-22T13:20:52;30.30;54.00
1297;DHT22;641;48.492;9.184;2023-06-22T13:23:20;30.40;53.70
1297;DHT22;641;48.492;9.184;2023-06-22T13:25:46;30.60;53.60
1297;DHT22;641;48.492;9.184;2023-06-22T13:28:12;30.80;54.10
1297;DHT22;641;48.492;9.184;2023-06-22T13:30:40;31.10;52.10
1297;DHT22;641;48.492;9.184;2023-06-22T13:33:05;31.30;52.80
1297;DHT22;641;48.492;9.184;2023-06-22T13:35:31;31.50;52.50
1297;DHT22;641;48.492;9.184;2023-06-22T13:37:56;31.50;52.80
1297;DHT22;641;48.492;9.184;2023-06-22T13:40:22;31.30;52.10
1297;DHT22;641;48.492;9.184;2023-06-22T13:42:48;31.20;52.00
1297;DHT22;641;48.492;9.184;2023-06-22T13:45:13;30.90;51.70
1297;DHT22;641;48.492;9.184;2023-06-22T13:47:39;30.80;51.30
1297;DHT22;641;48.492;9.184;2023-06-22T13:50:05;30.70;52.50
1297;DHT22;641;48.492;9.184;2023-06-22T13:52:31;30.70;51.70
1297;DHT22;641;48.492;9.184;2023-06-22T13:54:56;30.50;51.10
1297;DHT22;641;48.492;9.184;2023-06-22T13:57:22;30.60;52.80
1297;DHT22;641;48.492;9.184;2023-06-22T13:59:47;30.50;52.20
1297;DHT22;641;48.492;9.184;2023-06-22T14:02:13;30.30;51.20
1297;DHT22;641;48.492;9.184;2023-06-22T14:04:39;30.30;52.30
1297;DHT22;641;48.492;9.184;2023-06-22T14:07:04;30.30;51.50
1297;DHT22;641;48.492;9.184;2023-06-22T14:09:30;30.10;52.10
1297;DHT22;641;48.492;9.184;2023-06-22T14:11:56;30.10;53.40
1297;DHT22;641;48.492;9.184;2023-06-22T14:14:21;30.20;52.00
1297;DHT22;641;48.492;9.184;2023-06-22T14:16:47;30.30;53.70
1297;DHT22;641;48.492;9.184;2023-06-22T14:19:16;30.30;53.10
1297;DHT22;641;48.492;9.184;2023-06-22T14:21:42;30.40;53.30
1297;DHT22;641;48.492;9.184;2023-06-22T14:24:08;30.40;52.20
1297;DHT22;641;48.492;9.184;2023-06-22T14:26:33;30.50;52.70
1297;DHT22;641;48.492;9.184;2023-06-22T14:28:59;30.60;53.20
1297;DHT22;641;48.492;9.184;2023-06-22T14:31:24;30.70;53.00
1297;DHT22;641;48.492;9.184;2023-06-22T14:33:50;30.90;53.00
1297;DHT22;641;48.492;9.184;2023-06-22T14:36:16;31.00;51.40
1297;DHT22;641;48.492;9.184;2023-06-22T14:38:45;30.80;52.20
1297;DHT22;641;48.492;9.184;2023-06-22T14:41:11;30.80;52.90
1297;DHT22;641;48.492;9.184;2023-06-22T14:43:37;31.00;52.40
1297;DHT22;641;48.492;9.184;2023-06-22T14:46:02;31.20;51.50
1297;DHT22;641;48.492;9.184;2023-06-22T14:48:29;31.50;51.90
1297;DHT22;641;48.492;9.184;2023-06-22T14:50:54;31.50;52.20
1297;DHT22;641;48.492;9.184;2023-06-22T14:53:20;31.60;52.60
1297;DHT22;641;48.492;9.184;2023-06-22T14:55:45;31.50;51.70
1297;DHT22;641;48.492;9.184;2023-06-22T14:58:11;31.20;51.70
1297;DHT22;641;48.492;9.184;2023-06-22T15:00:37;31.20;52.60
1297;DHT22;641;48.492;9.184;2023-06-22T15:03:04;31.10;52.20
1297;DHT22;641;48.492;9.184;2023-06-22T15:05:32;30.90;50.60
1297;DHT22;641;48.492;9.184;2023-06-22T15:07:57;30.80;51.40
1297;DHT22;641;48.492;9.184;2023-06-22T15:10:23;31.00;51.10
1297;DHT22;641;48.492;9.184;2023-06-22T15:12:49;31.30;51.00
1297;DHT22;641;48.492;9.184;2023-06-22T15:15:15;31.60;50.00
1297;DHT22;641;48.492;9.184;2023-06-22T15:17:41;31.70;49.10
1297;DHT22;641;48.492;9.184;2023-06-22T15:20:07;31.70;49.80
1297;DHT22;641;48.492;9.184;2023-06-22T15:22:33;31.50;48.60
1297;DHT22;641;48.492;9.184;2023-06-22T15:24:59;31.20;49.60
1297;DHT22;641;48.492;9.184;2023-06-22T15:27:24;31.10;49.20
1297;DHT22;641;48.492;9.184;2023-06-22T15:29:50;30.80;50.40
1297;DHT22;641;48.492;9.184;2023-06-22T15:32:16;30.50;48.10
1297;DHT22;641;48.492;9.184;2023-06-22T15:34:41;30.10;45.20
1297;DHT22;641;48.492;9.184;2023-06-22T15:37:07;30.00;43.30
1297;DHT22;641;48.492;9.184;2023-06-22T15:39:32;29.90;43.10
1297;DHT22;641;48.492;9.184;2023-06-22T15:41:58;29.80;41.90
1297;DHT22;641;48.492;9.184;2023-06-22T15:44:23;29.70;42.40
1297;DHT22;641;48.492;9.184;2023-06-22T15:46:49;29.70;42.60
1297;DHT22;641;48.492;9.184;2023-06-22T15:49:16;29.90;42.70
1297;DHT22;641;48.492;9.184;2023-06-22T15:51:41;29.90;43.70
1297;DHT22;641;48.492;9.184;2023-06-22T15:54:07;29.80;42.50
1297;DHT22;641;48.492;9.184;2023-06-22T15:56:32;29.80;42.80
1297;DHT22;641;48.492;9.184;2023-06-22T15:58:58;29.60;42.70
1297;DHT22;641;48.492;9.184;2023-06-22T16:01:24;29.40;43.40
1297;DHT22;641;48.492;9.184;2023-06-22T16:03:53;29.30;44.40
1297;DHT22;641;48.492;9.184;2023-06-22T16:06:18;29.20;45.40
1297;DHT22;641;48.492;9.184;2023-06-22T16:08:44;29.10;45.00
1297;DHT22;641;48.492;9.184;2023-06-22T16:11:10;28.80;44.80
1297;DHT22;641;48.492;9.184;2023-06-22T16:13:36;28.70;45.30
1297;DHT22;641;48.492;9.184;2023-06-22T16:16:01;28.70;46.30
1297;DHT22;641;48.492;9.184;2023-06-22T16:18:27;28.40;45.90
1297;DHT22;641;48.492;9.184;2023-06-22T16:20:53;28.10;46.70